METAR and TAF’s


Available data for KLBB from the past 2 hours
LUBBOCK, TX
Metar
KLBB 190853Z 27005KT 10SM CLR M03/M04 A3014 RMK AO2 SLP217 T10331044 56006

08:53 UTC

Wind: 270° 5kt

Visibility: 10 SM

Sky:

Temp: -3 deg C / 26.6 deg F

Dewpoint: -4 deg C / 24.8 deg F

Pressure: 30.14 inHg

TAF
KLBB 190520Z 1906/2006 24004KT P6SM SKC FM191800 36009KT P6SM FEW250
Available data for KCVN from the past 2 hours
CLOVIS MUNI, NM
Metar
KCVN 190756Z AUTO 27003KT 10SM CLR M06/M07 A3013 RMK AO2 SLP233 T10611072 FZRANO

07:56 UTC

Wind: 270° 3kt

Visibility: 10 SM

Sky:

Temp: -6 deg C / 21.2 deg F

Dewpoint: -7 deg C / 19.4 deg F

Pressure: 30.13 inHg